Terminal Aerodrome Forecast
Issued by NWS Paducah, KY

Home | Current Version | Previous Version | Graphics & Text | Print | Product List | Glossary On
Versions: 1 2 3 4 5 6 7 8 9 10 11 12 13 14 15 16 17 18 19
000
FTUS43 KPAH 271700
TAFEVV
TAF
KEVV 271720Z 2718/2818 19005KT 5SM -DZ BR OVC005
      TEMPO 2718/2722 3SM -RA BR
     FM272200 32007KT 5SM -RADZ BR OVC007=

USA.gov is the U.S. government's official web portal to all federal, state and local government web resources and services.